Time;durP1;ratioP1;P1;durP2;ratioP2;P2;SDS_P1;SDS_P2;PMS_P1;PMS_P2;Temp;Humidity;BMP_temperature;BMP_pressure;BME280_temperature;BME280_humidity;BME280_pressure;Samples;Min_cycle;Max_cycle;Signal;HPM_P1;HPM_P2
2023/08/18 00:00:11;;;;;;;10.70;9.63;;;27.40;87.60;;;;;;5077464;28;20218;-71
2023/08/18 00:02:38;;;;;;;9.20;8.40;;;27.50;87.60;;;;;;5091100;28;20224;-71
2023/08/18 00:05:05;;;;;;;8.53;7.73;;;27.40;87.50;;;;;;5094737;28;20203;-71
2023/08/18 00:07:33;;;;;;;10.13;9.27;;;27.40;87.70;;;;;;5103546;28;20239;-70
2023/08/18 00:10:02;;;;;;;8.40;7.70;;;27.30;87.70;;;;;;5095647;28;20217;-70
2023/08/18 00:12:28;;;;;;;9.33;8.30;;;27.30;87.80;;;;;;5079527;28;20756;-71
2023/08/18 00:14:55;;;;;;;8.77;7.97;;;27.30;87.90;;;;;;5083262;28;20241;-71
2023/08/18 00:17:22;;;;;;;8.47;7.53;;;27.30;87.70;;;;;;5087933;28;20224;-71
2023/08/18 00:19:49;;;;;;;8.93;7.90;;;27.30;87.70;;;;;;5072995;28;20235;-71
2023/08/18 00:22:16;;;;;;;7.93;7.23;;;27.30;87.60;;;;;;5072805;28;20232;-70
2023/08/18 00:24:44;;;;;;;7.77;7.07;;;27.30;87.60;;;;;;5072336;28;20210;-71
2023/08/18 00:27:11;;;;;;;8.33;7.63;;;27.30;87.50;;;;;;5072583;28;20201;-71
2023/08/18 00:29:38;;;;;;;8.33;7.53;;;27.20;87.40;;;;;;5072583;28;20570;-71
2023/08/18 00:32:05;;;;;;;8.37;7.57;;;27.20;87.50;;;;;;5072427;28;20268;-70
2023/08/18 00:34:32;;;;;;;8.40;7.60;;;27.20;87.60;;;;;;5072838;28;20229;-71
2023/08/18 00:36:59;;;;;;;8.20;7.40;;;27.10;87.50;;;;;;5073337;28;20228;-70
2023/08/18 00:39:26;;;;;;;8.10;7.30;;;27.10;87.60;;;;;;5072639;28;20208;-70
2023/08/18 00:41:54;;;;;;;8.20;7.50;;;27.10;87.70;;;;;;5071864;28;20209;-70
2023/08/18 00:44:21;;;;;;;8.97;8.17;;;27.10;87.90;;;;;;5090724;28;20220;-71
2023/08/18 00:46:48;;;;;;;8.03;7.23;;;27.00;87.80;;;;;;5092226;28;20202;-71
2023/08/18 00:49:16;;;;;;;8.17;7.37;;;27.00;87.90;;;;;;5075279;28;20248;-71
2023/08/18 00:51:44;;;;;;;8.63;7.73;;;27.00;88.00;;;;;;5072549;28;20206;-70
2023/08/18 00:54:12;;;;;;;8.90;8.10;;;27.00;88.10;;;;;;5072126;28;20229;-71
2023/08/18 00:56:39;;;;;;;8.50;7.70;;;26.90;88.00;;;;;;5071710;28;20312;-71
2023/08/18 00:59:08;;;;;;;8.57;7.70;;;26.90;88.00;;;;;;5071291;28;20210;-70
2023/08/18 01:01:35;;;;;;;9.00;7.90;;;26.90;88.10;;;;;;5072547;28;20229;-71
2023/08/18 01:04:02;;;;;;;9.07;8.27;;;26.90;88.10;;;;;;5081992;28;20221;-71
2023/08/18 01:06:29;;;;;;;8.10;7.07;;;26.90;88.10;;;;;;5091932;28;20251;-71
2023/08/18 01:08:56;;;;;;;8.77;7.87;;;26.80;88.00;;;;;;5075616;28;20208;-71
2023/08/18 01:11:28;;;;;;;9.10;8.30;;;26.80;88.10;;;;;;5071893;28;20236;-70
2023/08/18 01:14:02;;;;;;;9.30;8.37;;;26.80;88.40;;;;;;5079421;28;20217;-71
2023/08/18 01:16:30;;;;;;;8.50;7.70;;;26.80;88.40;;;;;;5092176;28;20203;-70
2023/08/18 01:18:58;;;;;;;8.40;7.70;;;26.70;88.30;;;;;;5086666;28;20230;-71
2023/08/18 01:21:26;;;;;;;8.50;7.80;;;26.70;88.30;;;;;;5072038;28;20224;-70
2023/08/18 01:23:54;;;;;;;8.43;7.70;;;26.70;88.40;;;;;;5078829;28;20221;-70
2023/08/18 01:26:20;;;;;;;8.23;7.53;;;26.70;88.40;;;;;;5091572;28;20199;-71
2023/08/18 01:28:47;;;;;;;10.03;7.53;;;26.70;88.30;;;;;;5090861;28;20212;-70
2023/08/18 01:31:19;;;;;;;9.13;8.33;;;26.70;88.30;;;;;;5092049;28;20210;-71
2023/08/18 01:33:50;;;;;;;8.83;8.03;;;26.70;88.20;;;;;;5080588;28;20209;-71
2023/08/18 01:36:19;;;;;;;8.63;7.80;;;26.60;88.20;;;;;;5072004;28;20585;-71
2023/08/18 01:38:47;;;;;;;7.83;7.07;;;26.60;88.10;;;;;;5084975;28;20261;-71
2023/08/18 01:41:19;;;;;;;8.20;7.40;;;26.60;88.20;;;;;;5091775;28;20208;-71
2023/08/18 01:43:46;;;;;;;8.00;7.17;;;26.50;88.20;;;;;;5078401;28;20215;-71
2023/08/18 01:46:12;;;;;;;8.10;7.40;;;26.50;88.10;;;;;;5075236;28;20371;-71
2023/08/18 01:48:39;;;;;;;8.47;7.63;;;26.50;88.10;;;;;;5091222;28;20239;-71
2023/08/18 01:51:06;;;;;;;8.10;7.30;;;26.50;88.10;;;;;;5091518;28;20213;-71
2023/08/18 01:53:33;;;;;;;8.90;7.93;;;26.40;88.10;;;;;;5094921;28;20808;-71
2023/08/18 01:56:01;;;;;;;8.43;7.63;;;26.40;88.00;;;;;;5091999;28;20228;-71
2023/08/18 01:58:29;;;;;;;8.43;7.63;;;26.40;88.00;;;;;;5075579;28;20201;-71
2023/08/18 02:00:56;;;;;;;8.10;7.40;;;26.30;88.10;;;;;;5075286;28;20213;-71
2023/08/18 02:03:23;;;;;;;7.67;7.07;;;26.30;88.10;;;;;;5075713;28;20679;-71
2023/08/18 02:05:52;;;;;;;8.93;8.03;;;26.30;88.10;;;;;;5075406;28;20228;-71
2023/08/18 02:08:19;;;;;;;7.13;6.57;;;26.30;88.10;;;;;;5075055;28;20209;-71
2023/08/18 02:10:46;;;;;;;7.70;6.97;;;26.30;88.00;;;;;;5086400;28;20201;-71
2023/08/18 02:13:14;;;;;;;7.70;7.00;;;26.20;88.00;;;;;;5095667;28;20224;-71
2023/08/18 02:15:45;;;;;;;8.37;7.27;;;26.20;87.90;;;;;;5095488;28;20229;-71
2023/08/18 02:18:11;;;;;;;7.60;6.90;;;26.20;87.90;;;;;;5090496;28;20229;-70
2023/08/18 02:20:38;;;;;;;7.23;6.63;;;26.20;87.90;;;;;;5094521;28;20207;-70
2023/08/18 02:23:05;;;;;;;7.13;6.43;;;26.20;87.80;;;;;;5095005;28;20246;-70
2023/08/18 02:25:32;;;;;;;6.93;6.33;;;26.20;87.60;;;;;;5093849;28;20200;-69
2023/08/18 02:27:59;;;;;;;7.50;6.90;;;26.20;87.60;;;;;;5095231;28;20208;-71
2023/08/18 02:30:26;;;;;;;8.27;7.27;;;26.10;87.50;;;;;;5094613;28;20215;-69
2023/08/18 02:32:54;;;;;;;6.97;6.37;;;26.10;87.60;;;;;;5043043;28;20207;-70
2023/08/18 02:35:21;;;;;;;7.80;6.73;;;26.10;87.60;;;;;;5078858;28;20229;-70
2023/08/18 02:37:48;;;;;;;8.03;7.23;;;26.00;87.30;;;;;;5074307;28;20215;-70
2023/08/18 02:40:15;;;;;;;7.87;6.60;;;26.00;87.30;;;;;;5074685;28;20201;-70
2023/08/18 02:42:42;;;;;;;7.40;6.70;;;26.00;87.50;;;;;;5078950;28;20223;-70
2023/08/18 02:45:09;;;;;;;7.23;6.63;;;25.90;87.50;;;;;;5080778;28;20204;-70
2023/08/18 02:47:38;;;;;;;8.17;7.30;;;25.90;87.60;;;;;;5074859;28;20235;-70
2023/08/18 02:50:07;;;;;;;7.63;6.10;;;25.80;87.50;;;;;;5078113;28;20196;-70
2023/08/18 02:52:34;;;;;;;7.37;6.67;;;25.80;87.50;;;;;;5093938;28;20249;-70
2023/08/18 02:55:01;;;;;;;6.67;6.07;;;25.80;87.60;;;;;;5092976;28;20216;-71
2023/08/18 02:57:27;;;;;;;6.83;6.17;;;25.80;87.40;;;;;;5094106;28;20208;-70
2023/08/18 02:59:54;;;;;;;8.90;7.13;;;25.80;87.30;;;;;;5094417;28;20232;-70
2023/08/18 03:02:21;;;;;;;6.60;6.00;;;25.80;87.20;;;;;;5094377;28;20218;-70
2023/08/18 03:04:48;;;;;;;6.67;6.07;;;25.80;87.20;;;;;;5094171;28;20216;-70
2023/08/18 03:07:16;;;;;;;6.00;5.33;;;25.70;87.80;;;;;;5094631;28;20192;-71
2023/08/18 03:09:43;;;;;;;7.40;5.90;;;25.70;87.10;;;;;;5094486;28;20216;-70
2023/08/18 03:12:10;;;;;;;6.50;5.90;;;25.60;87.00;;;;;;5093993;28;20207;-70
2023/08/18 03:14:37;;;;;;;6.17;5.53;;;25.60;87.00;;;;;;5094286;28;20230;-70
2023/08/18 03:17:04;;;;;;;6.87;5.77;;;25.60;87.00;;;;;;5094869;28;20232;-70
2023/08/18 03:19:31;;;;;;;6.87;6.10;;;25.50;86.80;;;;;;5094870;28;20208;-70
2023/08/18 03:21:58;;;;;;;8.10;5.90;;;25.50;86.70;;;;;;5097152;28;20204;-70
2023/08/18 03:24:26;;;;;;;5.73;5.23;;;25.50;86.60;;;;;;5102314;28;20193;-70
2023/08/18 03:26:53;;;;;;;6.63;5.83;;;25.50;86.60;;;;;;5081684;28;20236;-70
2023/08/18 03:29:20;;;;;;;7.20;6.57;;;25.40;86.50;;;;;;5077430;28;20233;-70
2023/08/18 03:31:46;;;;;;;7.60;5.40;;;25.40;86.50;;;;;;5092663;28;20273;-70
2023/08/18 03:34:13;;;;;;;5.83;5.33;;;25.40;86.40;;;;;;5091100;28;20304;-70
2023/08/18 03:36:40;;;;;;;6.70;5.67;;;25.40;86.40;;;;;;5073846;28;20212;-70
2023/08/18 03:39:07;;;;;;;6.93;6.23;;;25.30;86.30;;;;;;5073435;28;20216;-70
2023/08/18 03:41:37;;;;;;;7.33;6.50;;;25.30;86.60;;;;;;5073666;28;20291;-70
2023/08/18 03:44:04;;;;;;;7.37;6.67;;;25.30;86.90;;;;;;5084868;28;20225;-70
2023/08/18 03:46:31;;;;;;;5.97;5.47;;;25.20;87.00;;;;;;5073211;28;20232;-69
2023/08/18 03:48:58;;;;;;;6.00;5.50;;;25.20;87.10;;;;;;5073177;28;20205;-71
2023/08/18 03:51:25;;;;;;;6.23;5.63;;;25.10;86.80;;;;;;5073039;28;20220;-70
2023/08/18 03:53:52;;;;;;;7.43;6.03;;;25.10;86.70;;;;;;5073417;28;20300;-70
2023/08/18 03:56:19;;;;;;;6.13;5.63;;;25.10;86.80;;;;;;5073127;28;20700;-70
2023/08/18 03:58:47;;;;;;;5.70;5.20;;;25.10;86.60;;;;;;5073114;28;20316;-70
2023/08/18 04:01:14;;;;;;;6.30;5.80;;;25.10;86.70;;;;;;5073317;28;20227;-70
2023/08/18 04:03:43;;;;;;;7.90;5.87;;;25.00;86.60;;;;;;5073131;28;20205;-70
2023/08/18 04:06:12;;;;;;;6.33;5.73;;;25.00;86.60;;;;;;5092958;28;20188;-70
2023/08/18 04:08:41;;;;;;;6.77;5.53;;;25.00;86.70;;;;;;5093122;28;20585;-70
2023/08/18 04:11:08;;;;;;;6.40;5.80;;;24.90;86.60;;;;;;5093359;28;20319;-70
2023/08/18 04:13:35;;;;;;;6.37;5.43;;;24.90;86.60;;;;;;5092672;28;20204;-70
2023/08/18 04:16:03;;;;;;;6.07;5.43;;;24.90;86.70;;;;;;5091984;28;20228;-70
2023/08/18 04:18:30;;;;;;;5.53;5.03;;;24.90;86.70;;;;;;5092883;28;20682;-70
2023/08/18 04:20:57;;;;;;;5.90;5.40;;;24.80;86.70;;;;;;5092914;28;20211;-70
2023/08/18 04:23:24;;;;;;;6.53;5.60;;;24.80;86.60;;;;;;5081508;28;20689;-70
2023/08/18 04:25:51;;;;;;;7.70;5.60;;;24.80;86.50;;;;;;5072657;28;20205;-70
2023/08/18 04:28:18;;;;;;;6.73;6.13;;;24.80;86.60;;;;;;5072501;28;20786;-70
2023/08/18 04:30:46;;;;;;;6.03;5.33;;;24.80;86.70;;;;;;5072544;28;20211;-70
2023/08/18 04:33:16;;;;;;;6.23;5.37;;;24.70;86.60;;;;;;5081182;28;20211;-71
2023/08/18 04:35:43;;;;;;;8.17;5.70;;;24.70;86.60;;;;;;5077026;28;20536;-70
2023/08/18 04:38:10;;;;;;;5.93;5.33;;;24.60;86.80;;;;;;5072775;28;20209;-70
2023/08/18 04:40:37;;;;;;;7.10;6.13;;;24.60;86.90;;;;;;5072573;28;20229;-70
2023/08/18 04:43:04;;;;;;;7.23;6.30;;;24.60;86.80;;;;;;5079605;28;20224;-70
2023/08/18 04:45:30;;;;;;;8.43;6.43;;;24.60;86.90;;;;;;5085487;28;20218;-70
2023/08/18 04:47:57;;;;;;;7.33;5.63;;;24.50;87.60;;;;;;5071821;28;20204;-70
2023/08/18 04:50:25;;;;;;;7.93;6.23;;;24.50;86.90;;;;;;5072215;28;20204;-70
2023/08/18 04:52:52;;;;;;;14.77;7.60;;;24.50;87.70;;;;;;5071910;28;20205;-70
2023/08/18 04:55:19;;;;;;;15.17;7.80;;;24.50;87.00;;;;;;5083158;28;20217;-71
2023/08/18 04:57:46;;;;;;;11.80;6.97;;;24.40;87.30;;;;;;5072012;28;20228;-70
2023/08/18 05:00:14;;;;;;;9.97;6.83;;;24.50;87.00;;;;;;5072157;28;20209;-70
2023/08/18 05:02:41;;;;;;;18.83;8.40;;;24.40;86.90;;;;;;5071617;28;20751;-70
2023/08/18 05:05:09;;;;;;;17.13;8.73;;;24.40;86.90;;;;;;5075046;28;20569;-70
2023/08/18 05:07:37;;;;;;;7.67;6.27;;;24.40;87.00;;;;;;5092308;28;20204;-70
2023/08/18 05:10:04;;;;;;;6.27;5.67;;;24.40;87.20;;;;;;5091870;28;20222;-70
2023/08/18 05:12:31;;;;;;;6.53;5.67;;;24.40;87.20;;;;;;5092113;28;20208;-70
2023/08/18 05:14:58;;;;;;;5.67;5.17;;;24.40;87.20;;;;;;5079730;28;20256;-70
2023/08/18 05:17:24;;;;;;;5.30;4.90;;;24.40;87.20;;;;;;5072428;28;20223;-70
2023/08/18 05:19:51;;;;;;;6.70;6.00;;;24.40;87.30;;;;;;5071795;28;20205;-70
2023/08/18 05:22:21;;;;;;;6.40;4.97;;;24.40;87.30;;;;;;5071608;28;20216;-70
2023/08/18 05:24:49;;;;;;;5.80;5.30;;;24.50;87.30;;;;;;5073047;28;20201;-70
2023/08/18 05:27:16;;;;;;;6.00;5.13;;;24.50;87.10;;;;;;5054717;28;20246;-69
2023/08/18 05:29:43;;;;;;;5.60;5.10;;;24.50;87.30;;;;;;5092073;28;20208;-70
2023/08/18 05:32:11;;;;;;;5.80;5.00;;;24.50;87.40;;;;;;5055648;28;20234;-70
2023/08/18 05:34:38;;;;;;;5.37;4.87;;;24.50;87.40;;;;;;5086805;28;20200;-70
2023/08/18 05:37:06;;;;;;;5.50;5.00;;;24.60;87.60;;;;;;5082203;28;20207;-70
2023/08/18 05:39:33;;;;;;;5.50;5.00;;;24.60;87.70;;;;;;5088639;28;20708;-70
2023/08/18 05:42:01;;;;;;;5.87;5.27;;;24.60;87.60;;;;;;5071819;28;20219;-71
2023/08/18 05:44:28;;;;;;;7.23;4.97;;;24.70;87.60;;;;;;5071971;28;20229;-70
2023/08/18 05:46:55;;;;;;;5.73;5.20;;;24.70;87.50;;;;;;5074527;28;20200;-70
2023/08/18 05:49:22;;;;;;;5.43;4.93;;;24.70;88.20;;;;;;5080401;28;20229;-70
2023/08/18 05:51:49;;;;;;;5.10;4.63;;;24.70;87.30;;;;;;5072100;28;20197;-70
2023/08/18 05:54:16;;;;;;;6.47;5.00;;;24.80;87.50;;;;;;5077843;28;20226;-70
2023/08/18 05:56:44;;;;;;;5.63;5.03;;;24.80;87.40;;;;;;5091417;28;20232;-71
2023/08/18 05:59:12;;;;;;;7.23;5.27;;;24.80;87.20;;;;;;5089907;28;20213;-70
2023/08/18 06:01:39;;;;;;;5.67;5.17;;;24.80;87.60;;;;;;5091006;28;20700;-70
2023/08/18 06:04:06;;;;;;;6.00;5.40;;;24.90;87.70;;;;;;5085581;28;20255;-70
2023/08/18 06:06:34;;;;;;;5.23;4.73;;;24.90;87.40;;;;;;5070886;28;20229;-71
2023/08/18 06:09:01;;;;;;;5.13;4.70;;;24.90;87.20;;;;;;5072226;28;20211;-71
2023/08/18 06:11:28;;;;;;;5.70;5.20;;;24.90;87.30;;;;;;5085964;28;20196;-70
2023/08/18 06:13:55;;;;;;;7.77;4.60;;;25.00;87.30;;;;;;5087677;28;20211;-70
2023/08/18 06:16:23;;;;;;;5.23;4.60;;;25.00;87.20;;;;;;5070594;28;20224;-70
2023/08/18 06:18:50;;;;;;;5.87;4.13;;;25.10;87.80;;;;;;5070719;28;20244;-70
2023/08/18 06:21:16;;;;;;;6.40;4.03;;;25.10;86.60;;;;;;5071231;28;20209;-70
2023/08/18 06:23:44;;;;;;;5.77;4.40;;;25.20;86.40;;;;;;5070431;28;20734;-70
2023/08/18 06:26:10;;;;;;;4.33;3.93;;;25.20;86.40;;;;;;5071756;28;20284;-70
2023/08/18 06:28:37;;;;;;;4.90;4.20;;;25.30;86.40;;;;;;5070793;28;20201;-70
2023/08/18 06:31:05;;;;;;;6.70;4.50;;;25.40;85.90;;;;;;5071292;28;20223;-70
2023/08/18 06:33:34;;;;;;;6.30;4.20;;;25.40;85.50;;;;;;5071445;28;20209;-70
2023/08/18 06:36:01;;;;;;;4.90;4.50;;;25.50;85.10;;;;;;5071363;28;20263;-70
2023/08/18 06:38:27;;;;;;;6.20;4.23;;;25.50;85.00;;;;;;5072666;28;20205;-70
2023/08/18 06:40:54;;;;;;;4.87;4.37;;;25.50;84.80;;;;;;5075441;28;20709;-70
2023/08/18 06:43:21;;;;;;;4.30;3.93;;;25.60;85.20;;;;;;5075034;28;20217;-70
2023/08/18 06:45:48;;;;;;;8.50;4.90;;;25.60;84.00;;;;;;5075013;28;20331;-70
2023/08/18 06:48:15;;;;;;;5.93;4.23;;;25.70;83.70;;;;;;5088508;28;20277;-70
2023/08/18 06:50:43;;;;;;;3.80;3.50;;;25.80;83.00;;;;;;5081691;28;20212;-70
2023/08/18 06:53:10;;;;;;;5.20;3.93;;;25.80;83.00;;;;;;5097836;28;20226;-70
2023/08/18 06:55:37;;;;;;;5.60;4.20;;;25.90;82.90;;;;;;5110543;28;20224;-70
2023/08/18 06:58:04;;;;;;;5.27;4.00;;;25.90;82.50;;;;;;5095834;28;20235;-71
2023/08/18 07:00:32;;;;;;;3.93;3.47;;;26.00;82.00;;;;;;5074010;28;20569;-70
2023/08/18 07:02:58;;;;;;;5.10;3.63;;;26.00;82.00;;;;;;5074416;28;20321;-70
2023/08/18 07:05:26;;;;;;;4.53;3.70;;;26.10;82.00;;;;;;5074107;28;20201;-71
2023/08/18 07:07:54;;;;;;;5.03;3.97;;;26.20;82.00;;;;;;5074330;28;20300;-70
2023/08/18 07:10:21;;;;;;;4.60;3.90;;;26.20;81.70;;;;;;5073634;28;20705;-70
2023/08/18 07:12:48;;;;;;;7.47;4.40;;;26.30;80.70;;;;;;5073969;28;20205;-70
2023/08/18 07:15:15;;;;;;;4.00;3.70;;;26.30;80.40;;;;;;5074037;28;20255;-70
2023/08/18 07:17:42;;;;;;;5.00;3.80;;;26.30;80.20;;;;;;5074163;28;20299;-72
2023/08/18 07:20:12;;;;;;;4.03;3.73;;;26.40;80.00;;;;;;5072934;28;20699;-71
2023/08/18 07:22:39;;;;;;;5.67;3.40;;;26.40;79.40;;;;;;5074025;28;20209;-70
2023/08/18 07:25:10;;;;;;;4.23;3.83;;;26.50;79.40;;;;;;5074259;28;20212;-71
2023/08/18 07:27:37;;;;;;;4.50;3.93;;;26.60;79.50;;;;;;5073664;28;20283;-71
2023/08/18 07:30:06;;;;;;;3.97;3.47;;;26.70;80.20;;;;;;5073717;28;20209;-71
2023/08/18 07:32:32;;;;;;;4.17;3.77;;;26.80;79.70;;;;;;5073654;28;20209;-71
2023/08/18 07:34:59;;;;;;;5.37;3.53;;;26.80;78.40;;;;;;5073853;28;20186;-71
2023/08/18 07:37:26;;;;;;;4.37;3.90;;;26.90;78.20;;;;;;5073392;28;20231;-71
2023/08/18 07:39:53;;;;;;;5.57;3.87;;;26.90;78.50;;;;;;5072993;28;20226;-71
2023/08/18 07:42:21;;;;;;;4.33;3.90;;;27.00;79.00;;;;;;5074228;28;20212;-70
2023/08/18 07:44:48;;;;;;;6.07;3.37;;;27.10;78.40;;;;;;5093592;28;20229;-70
2023/08/18 07:47:15;;;;;;;4.60;3.70;;;27.10;78.70;;;;;;5093715;28;20219;-71
2023/08/18 07:49:42;;;;;;;4.77;3.33;;;27.20;78.20;;;;;;5092335;28;20217;-71
2023/08/18 07:52:09;;;;;;;3.80;3.50;;;27.30;77.60;;;;;;5093665;28;20211;-71
2023/08/18 07:54:35;;;;;;;5.70;4.10;;;27.40;77.30;;;;;;5093185;28;20220;-71
2023/08/18 07:57:03;;;;;;;6.40;3.63;;;27.40;76.60;;;;;;5092925;28;20707;-71
2023/08/18 07:59:31;;;;;;;4.57;3.57;;;27.40;76.50;;;;;;5093090;28;20298;-71
2023/08/18 08:01:58;;;;;;;3.53;3.23;;;27.40;76.60;;;;;;5092821;28;20272;-71
2023/08/18 08:04:26;;;;;;;6.57;3.73;;;27.50;76.50;;;;;;5093801;28;20217;-71
2023/08/18 08:06:55;;;;;;;3.93;3.53;;;27.50;76.90;;;;;;5093469;28;20261;-71
2023/08/18 08:09:24;;;;;;;4.10;3.60;;;27.60;76.30;;;;;;5093356;28;20227;-72
2023/08/18 08:11:50;;;;;;;3.97;3.60;;;27.70;76.90;;;;;;5092659;28;20212;-70
2023/08/18 08:14:17;;;;;;;3.50;3.20;;;27.70;76.00;;;;;;5093101;28;20242;-72
2023/08/18 08:16:46;;;;;;;4.10;3.70;;;27.80;75.40;;;;;;5093056;28;20325;-72
2023/08/18 08:19:13;;;;;;;5.23;3.53;;;27.90;75.30;;;;;;5093126;28;20329;-71
2023/08/18 08:21:41;;;;;;;3.97;3.60;;;28.00;76.10;;;;;;5093030;28;20214;-70
2023/08/18 08:24:08;;;;;;;4.23;3.83;;;28.10;75.40;;;;;;5093145;28;20201;-70
2023/08/18 08:26:35;;;;;;;3.87;3.43;;;28.10;75.40;;;;;;5092320;28;20234;-69
2023/08/18 08:29:02;;;;;;;5.20;3.77;;;28.20;75.60;;;;;;5092796;28;20242;-71
2023/08/18 08:31:29;;;;;;;3.77;3.43;;;28.30;75.00;;;;;;5093115;28;20237;-71
2023/08/18 08:33:57;;;;;;;4.03;3.60;;;28.30;73.40;;;;;;5092838;28;20283;-70
2023/08/18 08:36:24;;;;;;;4.33;3.93;;;28.10;73.50;;;;;;5092757;28;20227;-71
2023/08/18 08:38:51;;;;;;;4.73;3.53;;;28.20;74.30;;;;;;5092677;28;20230;-71
2023/08/18 08:41:17;;;;;;;4.70;3.83;;;28.30;74.40;;;;;;5092846;28;20213;-70
2023/08/18 08:43:45;;;;;;;5.40;3.60;;;28.50;74.20;;;;;;5079154;28;20232;-70
2023/08/18 08:46:12;;;;;;;4.77;3.63;;;28.60;74.80;;;;;;5072615;28;20551;-71
2023/08/18 08:48:45;;;;;;;4.90;3.63;;;28.70;73.60;;;;;;5072523;28;20208;-71
2023/08/18 08:51:15;;;;;;;3.93;3.53;;;28.70;71.40;;;;;;5072196;28;20227;-69
2023/08/18 08:53:48;;;;;;;3.43;3.13;;;28.80;72.30;;;;;;5071950;28;20665;-70
2023/08/18 08:56:17;;;;;;;5.13;3.90;;;28.80;71.10;;;;;;5071425;28;20225;-72
2023/08/18 08:58:45;;;;;;;4.57;3.13;;;28.80;71.80;;;;;;5071935;28;20212;-71
2023/08/18 09:01:12;;;;;;;4.20;3.80;;;29.00;71.90;;;;;;5070607;28;20242;-70
2023/08/18 09:03:39;;;;;;;4.13;3.73;;;29.10;70.90;;;;;;5071576;28;20684;-71
2023/08/18 09:06:07;;;;;;;3.40;3.10;;;29.20;71.00;;;;;;5072361;28;20240;-70
2023/08/18 09:08:36;;;;;;;3.60;3.30;;;29.20;71.00;;;;;;5072094;28;20231;-71
2023/08/18 09:11:03;;;;;;;3.40;3.10;;;29.20;71.00;;;;;;5071685;28;20242;-71
2023/08/18 09:13:30;;;;;;;4.23;3.47;;;29.40;70.40;;;;;;5071583;28;20242;-71
2023/08/18 09:15:58;;;;;;;4.20;3.80;;;29.50;69.90;;;;;;5071727;28;20251;-71
2023/08/18 09:18:25;;;;;;;4.20;3.80;;;29.40;69.10;;;;;;5071900;28;20260;-71
2023/08/18 09:20:56;;;;;;;4.87;3.80;;;29.50;69.20;;;;;;5071794;28;20204;-72
2023/08/18 09:23:26;;;;;;;3.73;3.43;;;29.50;69.90;;;;;;5071425;28;20189;-72
2023/08/18 09:25:57;;;;;;;5.33;3.80;;;29.70;70.60;;;;;;5072249;28;20223;-71
2023/08/18 09:28:24;;;;;;;5.53;3.67;;;29.80;69.60;;;;;;5071968;28;20227;-71
2023/08/18 09:30:51;;;;;;;6.03;3.87;;;29.90;70.00;;;;;;5071554;28;20228;-71
2023/08/18 09:33:18;;;;;;;3.93;3.57;;;29.90;70.20;;;;;;5071948;28;20217;-71
2023/08/18 09:35:44;;;;;;;4.13;3.73;;;30.10;70.40;;;;;;5071395;28;20220;-70
2023/08/18 09:38:13;;;;;;;4.30;3.80;;;30.30;70.70;;;;;;5071518;28;20216;-72
2023/08/18 09:40:40;;;;;;;6.37;3.70;;;30.40;70.10;;;;;;5071632;28;20215;-72
2023/08/18 09:43:08;;;;;;;5.00;3.60;;;30.60;69.40;;;;;;5079248;28;20274;-71
2023/08/18 09:45:40;;;;;;;4.60;3.03;;;30.70;69.20;;;;;;5092449;28;20212;-72
2023/08/18 09:48:13;;;;;;;3.30;3.00;;;30.80;70.10;;;;;;5091438;28;20221;-72
2023/08/18 09:50:45;;;;;;;4.07;3.40;;;31.00;68.80;;;;;;5091488;28;20200;-71
2023/08/18 09:53:15;;;;;;;4.07;3.60;;;31.10;68.40;;;;;;5091547;28;20215;-71
2023/08/18 09:55:45;;;;;;;3.60;3.13;;;31.10;66.60;;;;;;5091181;28;20237;-71
2023/08/18 09:58:20;;;;;;;3.60;3.27;;;31.20;66.60;;;;;;5091802;28;20210;-72
2023/08/18 10:00:55;;;;;;;4.00;3.60;;;31.30;65.70;;;;;;5091389;28;20228;-71
2023/08/18 10:03:25;;;;;;;4.53;3.37;;;31.40;65.70;;;;;;5091751;28;20257;-72
2023/08/18 10:05:53;;;;;;;3.33;3.00;;;31.50;65.50;;;;;;5091318;28;20611;-72
2023/08/18 10:08:23;;;;;;;4.23;3.20;;;31.60;64.80;;;;;;5091241;28;20245;-71
2023/08/18 10:10:50;;;;;;;4.03;3.20;;;31.80;64.80;;;;;;5091384;28;20225;-72
2023/08/18 10:13:19;;;;;;;3.27;2.97;;;31.90;64.40;;;;;;5092547;28;20189;-72
2023/08/18 10:15:47;;;;;;;3.03;2.73;;;32.10;64.20;;;;;;5095075;28;20225;-71
2023/08/18 10:18:14;;;;;;;3.50;3.20;;;32.20;64.40;;;;;;5095476;28;20226;-72
2023/08/18 10:20:51;;;;;;;4.70;3.30;;;32.30;63.70;;;;;;5095293;28;20575;-72
2023/08/18 10:23:19;;;;;;;4.77;3.47;;;32.30;61.10;;;;;;5095247;28;20248;-70
2023/08/18 10:25:46;;;;;;;3.80;3.40;;;32.20;61.10;;;;;;5094989;28;20575;-70
2023/08/18 10:28:19;;;;;;;4.13;3.20;;;32.30;62.10;;;;;;5095378;28;20202;-71
2023/08/18 10:30:51;;;;;;;3.40;2.90;;;32.40;60.00;;;;;;5094990;28;20294;-71
2023/08/18 10:33:30;;;;;;;3.77;3.00;;;32.40;62.00;;;;;;5095439;28;20561;-70
2023/08/18 10:35:58;;;;;;;5.13;3.30;;;32.60;61.20;;;;;;5094371;28;20240;-71
2023/08/18 10:38:29;;;;;;;3.63;2.83;;;32.80;61.60;;;;;;5095091;28;20227;-72
2023/08/18 10:40:56;;;;;;;4.73;3.10;;;32.90;62.00;;;;;;5094841;28;20234;-72
2023/08/18 10:43:27;;;;;;;5.33;3.10;;;33.00;61.30;;;;;;5084807;28;20230;-72
2023/08/18 10:45:59;;;;;;;3.70;3.30;;;33.10;60.90;;;;;;5074540;28;20192;-72
2023/08/18 10:48:30;;;;;;;3.53;3.00;;;33.20;60.50;;;;;;5074491;28;20208;-71
2023/08/18 10:50:57;;;;;;;5.60;3.73;;;33.30;59.90;;;;;;5074389;28;20652;-72
2023/08/18 10:53:24;;;;;;;4.47;3.17;;;33.40;58.50;;;;;;5074291;28;20227;-72
2023/08/18 10:55:53;;;;;;;4.63;3.57;;;33.40;59.40;;;;;;5073834;28;20668;-73
2023/08/18 10:58:21;;;;;;;4.07;2.90;;;33.50;59.90;;;;;;5074467;28;20239;-71
2023/08/18 11:00:49;;;;;;;4.30;3.20;;;33.60;60.00;;;;;;5074229;28;20243;-72
2023/08/18 11:03:16;;;;;;;4.67;3.30;;;33.60;57.60;;;;;;5074351;28;20205;-73
2023/08/18 11:05:43;;;;;;;6.40;3.37;;;33.60;57.40;;;;;;5073996;28;20228;-72
2023/08/18 11:08:10;;;;;;;5.20;3.30;;;33.60;58.00;;;;;;5074578;28;20207;-71
2023/08/18 11:10:39;;;;;;;3.23;2.93;;;33.70;59.70;;;;;;5074141;28;20637;-72
2023/08/18 11:13:07;;;;;;;4.60;3.10;;;33.80;59.90;;;;;;5074407;28;20216;-73
2023/08/18 11:15:33;;;;;;;3.40;3.10;;;34.00;59.60;;;;;;5073610;28;20228;-73
2023/08/18 11:18:02;;;;;;;3.90;3.47;;;34.10;58.50;;;;;;5074028;28;20248;-71
2023/08/18 11:20:30;;;;;;;3.63;3.07;;;34.20;57.80;;;;;;5073812;28;20209;-72
2023/08/18 11:22:58;;;;;;;3.33;3.00;;;34.40;57.70;;;;;;5073864;28;20213;-70
2023/08/18 11:25:25;;;;;;;3.60;3.30;;;34.50;56.70;;;;;;5073848;28;20201;-73
2023/08/18 11:27:52;;;;;;;3.70;2.97;;;34.50;56.80;;;;;;5073782;28;20220;-72
2023/08/18 11:30:20;;;;;;;4.13;3.20;;;34.50;55.40;;;;;;5073670;28;20201;-71
2023/08/18 11:32:47;;;;;;;3.10;2.77;;;34.50;55.90;;;;;;5073911;28;20233;-71
2023/08/18 11:35:18;;;;;;;3.80;2.80;;;34.60;57.30;;;;;;5073690;28;20247;-71
2023/08/18 11:37:46;;;;;;;4.47;2.93;;;34.70;54.90;;;;;;5073619;28;20301;-71
2023/08/18 11:40:15;;;;;;;5.17;2.80;;;34.80;55.60;;;;;;5073719;28;20229;-72
2023/08/18 11:42:43;;;;;;;4.23;2.87;;;34.90;55.00;;;;;;5077787;28;20219;-71
2023/08/18 11:45:11;;;;;;;3.53;3.07;;;35.00;55.20;;;;;;5093923;28;20239;-71
2023/08/18 11:47:38;;;;;;;4.13;3.07;;;35.00;54.40;;;;;;5093750;28;20612;-72
2023/08/18 11:50:07;;;;;;;5.57;3.77;;;34.90;54.10;;;;;;5093098;28;20213;-72
2023/08/18 11:52:43;;;;;;;3.47;2.80;;;35.10;55.10;;;;;;5092705;28;20189;-72
2023/08/18 11:55:10;;;;;;;6.03;3.00;;;35.10;53.60;;;;;;5093165;28;20292;-72
2023/08/18 11:57:40;;;;;;;4.87;3.23;;;35.20;54.60;;;;;;5093109;28;20756;-72
2023/08/18 12:00:13;;;;;;;6.40;3.27;;;35.40;55.30;;;;;;5093165;28;20213;-73
2023/08/18 12:02:43;;;;;;;3.10;2.80;;;35.50;54.50;;;;;;5093213;28;20274;-73
2023/08/18 12:05:20;;;;;;;3.50;2.90;;;35.60;51.60;;;;;;5093552;28;20208;-72
2023/08/18 12:07:48;;;;;;;6.43;3.13;;;35.40;51.30;;;;;;5092713;28;20640;-71
2023/08/18 12:10:15;;;;;;;3.97;3.07;;;35.50;52.50;;;;;;5093498;28;20414;-72
2023/08/18 12:12:42;;;;;;;4.07;2.80;;;35.50;52.40;;;;;;5093381;28;20211;-73
2023/08/18 12:15:09;;;;;;;3.83;2.90;;;35.70;52.80;;;;;;5093219;28;20235;-72
2023/08/18 12:17:36;;;;;;;4.33;3.07;;;35.80;52.90;;;;;;5092692;28;20238;-71
2023/08/18 12:20:06;;;;;;;5.17;3.00;;;35.90;52.50;;;;;;5093094;28;20228;-71
2023/08/18 12:22:33;;;;;;;4.50;2.70;;;36.00;53.20;;;;;;5093151;28;20221;-73
2023/08/18 12:25:01;;;;;;;3.97;2.60;;;36.10;52.40;;;;;;5092710;28;20210;-72
2023/08/18 12:27:29;;;;;;;5.83;2.97;;;36.30;52.70;;;;;;5092909;28;20290;-72
2023/08/18 12:29:56;;;;;;;5.53;2.70;;;36.40;52.00;;;;;;5092759;28;20300;-72
2023/08/18 12:32:23;;;;;;;3.10;2.80;;;36.50;51.00;;;;;;5092747;28;20640;-71
2023/08/18 12:34:50;;;;;;;3.50;2.70;;;36.50;50.80;;;;;;5092943;28;20214;-71
2023/08/18 12:37:18;;;;;;;5.60;3.00;;;36.60;51.00;;;;;;5091947;28;20225;-72
2023/08/18 12:39:46;;;;;;;5.43;2.83;;;36.70;51.40;;;;;;5092592;28;20684;-72
2023/08/18 12:42:14;;;;;;;4.97;2.90;;;36.80;50.60;;;;;;5092280;28;20215;-72
2023/08/18 12:44:42;;;;;;;3.30;2.87;;;36.80;51.30;;;;;;5072825;28;20225;-71
2023/08/18 12:47:08;;;;;;;3.00;2.67;;;36.90;51.80;;;;;;5072207;28;20214;-72